Time;durP1;ratioP1;P1;durP2;ratioP2;P2;SDS_P1;SDS_P2;PMS_P1;PMS_P2;Temp;Humidity;BMP_temperature;BMP_pressure;BME280_temperature;BME280_humidity;BME280_pressure;Samples;Min_cycle;Max_cycle;Signal;HPM_P1;HPM_P2
2023/01/05 00:00:00;;;;;;;41.35;5.88;;;11.70;90.00;;;;;;9180350;19;20018;-68
2023/01/05 00:03:01;;;;;;;25.02;4.40;;;11.70;90.10;;;;;;9179620;19;20027;-68
2023/01/05 00:06:05;;;;;;;36.47;6.20;;;11.50;89.80;;;;;;9176220;19;20022;-68
2023/01/05 00:09:07;;;;;;;;;;;11.70;89.90;;;;;;9177218;19;20018;-68
2023/01/05 00:22:30;;;;;;;33.83;4.05;;;11.70;89.80;;;;;;9179214;19;20510;-68
2023/01/05 00:25:35;;;;;;;25.42;4.47;;;11.70;90.30;;;;;;9174810;19;20035;-68
2023/01/05 00:28:37;;;;;;;23.52;4.50;;;11.60;89.70;;;;;;9179162;19;20020;-68
2023/01/05 00:31:38;;;;;;;31.05;4.57;;;11.70;89.80;;;;;;9179027;19;20038;-68
2023/01/05 00:34:39;;;;;;;26.27;3.45;;;12.10;91.00;;;;;;9178625;19;20010;-68
2023/01/05 00:37:42;;;;;;;38.00;4.53;;;11.60;90.40;;;;;;9178793;19;20471;-69
2023/01/05 00:40:43;;;;;;;34.85;5.10;;;11.60;90.10;;;;;;9172867;19;20022;-68
2023/01/05 00:43:44;;;;;;;29.77;5.05;;;11.70;89.90;;;;;;9177884;19;20018;-68
2023/01/05 00:46:46;;;;;;;23.10;3.92;;;11.90;91.50;;;;;;9177791;19;20022;-68
2023/01/05 00:49:47;;;;;;;21.33;3.78;;;11.70;92.90;;;;;;9173605;19;20018;-68
2023/01/05 00:52:49;;;;;;;29.35;3.88;;;11.60;89.60;;;;;;9177715;19;20038;-68
2023/01/05 00:55:57;;;;;;;24.63;4.05;;;11.70;89.60;;;;;;9176332;19;20463;-68
2023/01/05 00:58:59;;;;;;;27.77;5.35;;;11.60;89.50;;;;;;9177248;19;20048;-68
2023/01/05 01:02:01;;;;;;;32.90;4.47;;;11.70;90.60;;;;;;9176059;19;20018;-67
2023/01/05 01:05:04;;;;;;;34.70;5.35;;;11.70;94.00;;;;;;9175094;19;20058;-68
2023/01/05 01:08:05;;;;;;;38.15;6.15;;;12.10;93.30;;;;;;9178509;19;20011;-67
2023/01/05 01:11:08;;;;;;;37.10;5.32;;;11.60;89.80;;;;;;9172512;19;20010;-67
2023/01/05 01:14:10;;;;;;;34.03;4.28;;;11.60;89.30;;;;;;9177018;19;20032;-68
2023/01/05 01:17:12;;;;;;;23.75;5.03;;;11.70;90.40;;;;;;9177597;19;20035;-67
2023/01/05 01:20:13;;;;;;;34.72;4.03;;;12.10;90.20;;;;;;9176334;19;20371;-67
2023/01/05 01:23:15;;;;;;;27.40;3.10;;;11.80;90.50;;;;;;9174643;19;20023;-69
2023/01/05 01:26:16;;;;;;;20.55;3.85;;;11.60;89.60;;;;;;9173038;19;20014;-69
2023/01/05 01:29:18;;;;;;;31.15;3.60;;;11.70;90.70;;;;;;9175366;19;20010;-67
2023/01/05 01:32:19;;;;;;;29.90;4.90;;;11.80;92.60;;;;;;9173425;19;20022;-67
2023/01/05 01:35:21;;;;;;;23.23;3.97;;;11.50;89.10;;;;;;9174886;19;20106;-67
2023/01/05 01:38:23;;;;;;;39.70;4.40;;;11.60;89.10;;;;;;9174803;19;20094;-67
2023/01/05 01:41:25;;;;;;;25.52;4.13;;;11.20;90.30;;;;;;9173842;19;20038;-67
2023/01/05 01:44:46;;;;;;;38.72;6.40;;;11.80;95.40;;;;;;9174488;19;20014;-69
2023/01/05 01:47:53;;;;;;;28.95;5.50;;;11.10;95.50;;;;;;9174198;19;20030;-69
2023/01/05 01:50:55;;;;;;;29.40;4.43;;;11.80;94.70;;;;;;9170098;19;20030;-67
2023/01/05 01:54:04;;;;;;;25.63;3.58;;;11.80;92.30;;;;;;9174468;19;20343;-69
2023/01/05 01:57:09;;;;;;;25.50;4.03;;;11.80;96.10;;;;;;9173595;19;20086;-67
2023/01/05 02:00:13;;;;;;;26.55;3.67;;;11.80;96.70;;;;;;9172983;19;20015;-67
2023/01/05 02:03:24;;;;;;;30.48;4.03;;;11.80;92.50;;;;;;9173508;19;20021;-69
2023/01/05 02:06:26;;;;;;;41.05;4.07;;;12.80;97.10;;;;;;9175581;19;20114;-67
2023/01/05 02:09:28;;;;;;;32.88;5.32;;;12.30;89.20;;;;;;9174338;19;20018;-66
2023/01/05 02:12:51;;;;;;;22.67;4.95;;;11.60;88.80;;;;;;9173035;19;20014;-67
2023/01/05 02:16:06;;;;;;;28.58;4.68;;;11.60;88.80;;;;;;9172646;19;20046;-67
2023/01/05 02:19:22;;;;;;;35.10;4.15;;;11.60;88.80;;;;;;9174729;19;20082;-69
2023/01/05 02:22:58;;;;;;;30.35;4.15;;;11.60;88.80;;;;;;9174610;19;20018;-68
2023/01/05 02:26:44;;;;;;;29.65;5.07;;;11.60;88.70;;;;;;9169941;19;20030;-69
2023/01/05 02:30:09;;;;;;;25.52;3.45;;;11.60;88.70;;;;;;9169433;19;20014;-67
2023/01/05 02:33:35;;;;;;;31.02;4.90;;;11.50;88.70;;;;;;9175016;19;20439;-67
2023/01/05 02:36:59;;;;;;;27.58;3.80;;;11.50;88.70;;;;;;9180484;19;20019;-67
2023/01/05 02:40:12;;;;;;;28.25;3.72;;;11.50;88.70;;;;;;9181155;19;20025;-68
2023/01/05 02:43:19;;;;;;;31.27;4.53;;;11.50;88.70;;;;;;9183070;19;20481;-68
2023/01/05 02:46:20;;;;;;;27.13;3.67;;;11.50;88.70;;;;;;9179127;19;20030;-68
2023/01/05 02:49:22;;;;;;;36.78;4.47;;;11.50;88.70;;;;;;9175286;19;20713;-69
2023/01/05 02:52:26;;;;;;;30.73;4.18;;;11.40;88.10;;;;;;9180091;19;20030;-68
2023/01/05 02:55:45;;;;;;;35.13;4.00;;;11.50;88.70;;;;;;9181856;19;20007;-68
2023/01/05 02:58:57;;;;;;;30.27;5.28;;;11.40;88.60;;;;;;9181647;19;20461;-68
2023/01/05 03:02:04;;;;;;;27.65;3.78;;;11.40;88.60;;;;;;9180050;19;20711;-67
2023/01/05 03:05:15;;;;;;;22.77;3.13;;;11.40;88.70;;;;;;9179355;19;20023;-68
2023/01/05 03:08:22;;;;;;;28.73;4.03;;;11.40;88.60;;;;;;9180447;19;20026;-68
2023/01/05 03:15:09;;;;;;;29.85;4.38;;;11.40;88.60;;;;;;9178488;19;20014;-68
2023/01/05 03:18:16;;;;;;;24.70;5.00;;;11.40;88.60;;;;;;9179689;19;20458;-68
2023/01/05 03:21:23;;;;;;;30.63;4.38;;;11.40;88.60;;;;;;9179595;19;20015;-68
2023/01/05 03:35:33;;;;;;;24.17;3.45;;;;;;;;;;9179357;19;20011;-68
2023/01/05 03:38:44;;;;;;;32.42;4.10;;;11.30;88.10;;;;;;9178717;19;20019;-68
2023/01/05 03:41:47;;;;;;;38.05;6.70;;;11.30;88.60;;;;;;9179092;19;20086;-68
2023/01/05 03:44:49;;;;;;;25.13;3.70;;;11.30;88.60;;;;;;9176647;19;20082;-68
2023/01/05 03:47:52;;;;;;;37.10;4.00;;;11.30;88.60;;;;;;9181777;19;20332;-68
2023/01/05 03:50:58;;;;;;;25.67;3.33;;;11.30;89.20;;;;;;9173822;19;20025;-68
2023/01/05 03:54:00;;;;;;;33.67;4.22;;;11.30;88.60;;;;;;9178609;19;20014;-68
2023/01/05 03:57:04;;;;;;;34.47;5.30;;;11.30;88.70;;;;;;9177870;19;20359;-68
2023/01/05 04:00:07;;;;;;;38.65;6.15;;;11.30;88.70;;;;;;9178839;19;20466;-69
2023/01/05 04:03:18;;;;;;;28.33;4.20;;;11.30;88.70;;;;;;9179289;19;20018;-68
2023/01/05 04:06:20;;;;;;;27.95;4.93;;;11.30;88.70;;;;;;9176368;19;20029;-68
2023/01/05 04:09:22;;;;;;;42.17;5.38;;;11.40;90.00;;;;;;9177810;19;20015;-68
2023/01/05 04:12:23;;;;;;;26.52;3.47;;;11.30;90.50;;;;;;9177735;19;20131;-68
2023/01/05 04:15:25;;;;;;;25.42;4.40;;;11.30;88.90;;;;;;9179067;19;20017;-69
2023/01/05 04:18:28;;;;;;;37.75;5.28;;;11.30;89.00;;;;;;9177848;19;20018;-68
2023/01/05 04:21:30;;;;;;;39.40;5.32;;;11.30;90.10;;;;;;9177531;19;20043;-69
2023/01/05 04:24:32;;;;;;;27.50;3.90;;;11.40;90.60;;;;;;9175636;19;20042;-69
2023/01/05 04:27:36;;;;;;;31.15;3.95;;;11.40;90.80;;;;;;9176914;19;20026;-69
2023/01/05 04:30:47;;;;;;;34.83;4.95;;;11.40;90.60;;;;;;9178688;19;20052;-69
2023/01/05 04:33:49;;;;;;;30.60;4.53;;;11.30;90.70;;;;;;9178620;19;20023;-69
2023/01/05 04:36:53;;;;;;;41.35;4.32;;;11.40;90.70;;;;;;9177469;19;20480;-69
2023/01/05 04:39:56;;;;;;;27.90;4.03;;;11.40;91.10;;;;;;9178544;19;20026;-68
2023/01/05 04:42:58;;;;;;;31.75;3.85;;;11.40;90.40;;;;;;9177241;19;20019;-68
2023/01/05 04:46:00;;;;;;;34.28;5.78;;;11.40;90.10;;;;;;9172797;19;20019;-68
2023/01/05 04:49:03;;;;;;;43.80;5.07;;;11.30;90.30;;;;;;9173961;19;20027;-69
2023/01/05 04:52:05;;;;;;;28.13;4.55;;;11.40;90.50;;;;;;9178637;19;20017;-69
2023/01/05 04:55:08;;;;;;;48.43;4.80;;;11.40;90.60;;;;;;9175544;19;20015;-68
2023/01/05 04:58:10;;;;;;;29.45;4.68;;;11.40;90.60;;;;;;9177162;19;20010;-69
2023/01/05 05:01:14;;;;;;;34.00;4.25;;;11.40;90.40;;;;;;9176534;19;20022;-68
2023/01/05 05:04:18;;;;;;;25.95;4.40;;;11.40;90.80;;;;;;9174812;19;20090;-69
2023/01/05 05:07:23;;;;;;;24.38;3.85;;;11.30;90.50;;;;;;9175768;19;20007;-68
2023/01/05 05:10:25;;;;;;;24.55;4.10;;;11.40;90.80;;;;;;9173886;19;20487;-69
2023/01/05 05:13:26;;;;;;;34.92;4.35;;;11.40;91.00;;;;;;9177620;19;20029;-68
2023/01/05 05:16:28;;;;;;;34.15;5.47;;;11.40;91.00;;;;;;9175865;19;20433;-68
2023/01/05 05:19:29;;;;;;;30.17;4.35;;;11.40;90.20;;;;;;9174630;19;20102;-68
2023/01/05 05:22:32;;;;;;;24.05;3.88;;;11.30;89.00;;;;;;9175146;19;20365;-69
2023/01/05 05:25:35;;;;;;;33.23;4.60;;;11.30;89.00;;;;;;9172772;19;20484;-69
2023/01/05 05:28:37;;;;;;;33.03;4.95;;;11.30;88.90;;;;;;9174741;19;20010;-68
2023/01/05 05:31:38;;;;;;;27.83;4.13;;;11.20;89.00;;;;;;9175008;19;20043;-69
2023/01/05 05:34:40;;;;;;;35.72;4.50;;;11.30;89.00;;;;;;9175113;19;20050;-68
2023/01/05 05:37:41;;;;;;;30.77;5.13;;;11.30;89.20;;;;;;9176392;19;20039;-68
2023/01/05 05:40:43;;;;;;;29.45;4.90;;;11.30;90.00;;;;;;9176047;19;20011;-68
2023/01/05 05:43:44;;;;;;;35.83;4.25;;;11.40;89.30;;;;;;9174779;19;20398;-68
2023/01/05 05:46:45;;;;;;;38.70;4.93;;;11.20;88.90;;;;;;9176408;19;20026;-68
2023/01/05 05:49:47;;;;;;;24.58;3.35;;;11.30;88.90;;;;;;9169540;19;20022;-68
2023/01/05 05:52:49;;;;;;;30.27;4.10;;;11.30;88.90;;;;;;9173324;19;20046;-68
2023/01/05 05:55:50;;;;;;;29.13;4.18;;;11.20;88.90;;;;;;9175334;19;20033;-68
2023/01/05 05:58:52;;;;;;;26.83;3.13;;;11.20;88.90;;;;;;9174769;19;20007;-68
2023/01/05 06:02:05;;;;;;;27.23;3.40;;;11.20;89.00;;;;;;9175579;19;20030;-68
2023/01/05 06:05:07;;;;;;;26.05;4.05;;;11.20;89.00;;;;;;9172847;19;20015;-68
2023/01/05 06:08:08;;;;;;;25.48;4.05;;;11.20;89.00;;;;;;9179363;19;20014;-68
2023/01/05 06:11:09;;;;;;;27.40;4.18;;;11.20;89.00;;;;;;9181491;19;20021;-67
2023/01/05 06:14:11;;;;;;;25.20;4.45;;;11.20;89.10;;;;;;9183209;19;20014;-68
2023/01/05 06:17:12;;;;;;;32.13;4.53;;;11.20;90.40;;;;;;9181343;19;20029;-68
2023/01/05 06:20:18;;;;;;;25.48;5.18;;;11.20;89.70;;;;;;9183394;19;20046;-68
2023/01/05 06:23:19;;;;;;;32.28;3.95;;;11.20;89.70;;;;;;9183831;19;20010;-68
2023/01/05 06:26:21;;;;;;;24.70;4.63;;;11.10;89.20;;;;;;9179729;19;20019;-68
2023/01/05 06:29:22;;;;;;;32.88;4.75;;;11.20;89.80;;;;;;9182353;19;20367;-67
2023/01/05 06:32:23;;;;;;;25.17;3.95;;;11.30;90.70;;;;;;9180746;19;20014;-68
2023/01/05 06:35:25;;;;;;;31.80;4.47;;;10.80;89.10;;;;;;9182627;19;20015;-68
2023/01/05 06:38:26;;;;;;;29.55;4.15;;;11.20;90.30;;;;;;9182611;19;20014;-68
2023/01/05 06:41:28;;;;;;;31.05;4.78;;;11.10;89.80;;;;;;9183004;19;20011;-68
2023/01/05 06:44:29;;;;;;;30.20;4.55;;;11.10;89.20;;;;;;9182163;19;20021;-68
2023/01/05 06:47:31;;;;;;;34.47;4.93;;;11.10;89.20;;;;;;9182996;19;20042;-68
2023/01/05 06:50:32;;;;;;;30.30;5.78;;;11.10;89.30;;;;;;9176706;19;20018;-68
2023/01/05 06:53:34;;;;;;;28.83;4.45;;;11.10;89.30;;;;;;9182041;19;20467;-68
2023/01/05 06:56:35;;;;;;;26.83;3.55;;;11.10;89.30;;;;;;9182791;19;20488;-68
2023/01/05 06:59:37;;;;;;;30.13;4.60;;;11.10;89.30;;;;;;9181857;19;20011;-68
2023/01/05 07:02:38;;;;;;;27.05;4.95;;;11.10;89.30;;;;;;9178228;19;20022;-68
2023/01/05 07:05:40;;;;;;;23.98;3.88;;;11.20;89.40;;;;;;9178721;19;20015;-68
2023/01/05 07:08:42;;;;;;;36.42;4.57;;;11.10;89.40;;;;;;9180391;19;21302;-68
2023/01/05 07:11:43;;;;;;;29.10;5.10;;;11.40;89.50;;;;;;9178938;19;20033;-68
2023/01/05 07:14:45;;;;;;;26.95;3.80;;;11.10;89.40;;;;;;9176289;19;20368;-68
2023/01/05 07:17:46;;;;;;;27.40;3.17;;;11.10;89.30;;;;;;9164709;19;20923;-68
2023/01/05 07:20:47;;;;;;;36.78;4.95;;;11.10;89.30;;;;;;9163039;19;20058;-69
2023/01/05 07:23:49;;;;;;;27.92;4.60;;;11.10;89.30;;;;;;9162989;19;20055;-68
2023/01/05 07:26:50;;;;;;;42.42;5.25;;;11.10;89.40;;;;;;9173676;19;20035;-68
2023/01/05 07:29:52;;;;;;;24.83;4.13;;;11.10;89.60;;;;;;9172707;19;20022;-69
2023/01/05 07:32:57;;;;;;;31.98;4.15;;;11.10;89.40;;;;;;9171127;19;20023;-68
2023/01/05 07:36:03;;;;;;;29.42;4.47;;;11.10;89.30;;;;;;9172724;19;20052;-68
2023/01/05 07:39:04;;;;;;;30.27;4.15;;;11.10;89.40;;;;;;9171237;19;20018;-68
2023/01/05 07:42:05;;;;;;;29.13;4.63;;;11.10;89.30;;;;;;9171463;19;20049;-68
2023/01/05 07:45:08;;;;;;;21.38;3.35;;;11.10;89.30;;;;;;9171052;19;20495;-68
2023/01/05 07:48:09;;;;;;;22.38;4.43;;;11.10;89.40;;;;;;9175710;19;20026;-68
2023/01/05 07:51:11;;;;;;;30.95;3.67;;;11.10;89.30;;;;;;9168450;19;20043;-68
2023/01/05 07:54:12;;;;;;;25.50;3.35;;;11.10;89.40;;;;;;9165297;19;20025;-68
2023/01/05 07:57:14;;;;;;;28.42;4.32;;;11.10;89.40;;;;;;9166115;19;20506;-68
2023/01/05 08:00:15;;;;;;;28.52;3.88;;;11.20;89.40;;;;;;9170343;19;20025;-68
2023/01/05 08:03:17;;;;;;;28.25;3.63;;;11.10;89.40;;;;;;9170491;19;20789;-69
2023/01/05 08:06:20;;;;;;;27.10;4.25;;;11.30;91.20;;;;;;9169188;19;20039;-69
2023/01/05 08:16:01;;;;;;;28.35;4.03;;;11.10;89.20;;;;;;9170427;19;20019;-69
2023/01/05 08:19:03;;;;;;;19.40;3.88;;;11.20;89.20;;;;;;9171712;19;20086;-68
2023/01/05 08:22:12;;;;;;;28.77;4.28;;;11.20;89.30;;;;;;9173190;19;20372;-68
2023/01/05 08:25:13;;;;;;;24.67;3.88;;;11.20;89.30;;;;;;9168556;19;20026;-69
2023/01/05 08:28:15;;;;;;;40.35;6.18;;;11.20;89.20;;;;;;9169864;19;20022;-68
2023/01/05 08:31:20;;;;;;;27.63;3.97;;;11.20;89.80;;;;;;9177152;19;20015;-69
2023/01/05 08:34:21;;;;;;;29.48;3.88;;;11.40;91.70;;;;;;9175209;19;20015;-68
2023/01/05 08:37:23;;;;;;;20.17;3.08;;;11.30;91.20;;;;;;9171106;19;20098;-68
2023/01/05 08:40:24;;;;;;;38.50;5.18;;;11.20;89.60;;;;;;9177376;19;20030;-68
2023/01/05 08:43:26;;;;;;;32.35;4.40;;;11.20;89.20;;;;;;9173175;19;20086;-68
2023/01/05 08:46:34;;;;;;;36.28;4.07;;;11.20;89.20;;;;;;9168448;19;20756;-70
2023/01/05 08:49:35;;;;;;;26.48;5.43;;;11.20;89.20;;;;;;9166669;19;20458;-70
2023/01/05 08:52:38;;;;;;;39.90;4.80;;;11.20;89.10;;;;;;9171568;19;21140;-70
2023/01/05 08:55:39;;;;;;;29.95;3.92;;;11.30;89.20;;;;;;9168418;19;20054;-69
2023/01/05 08:58:41;;;;;;;28.73;4.43;;;11.30;89.20;;;;;;9159260;19;20015;-69
2023/01/05 09:01:42;;;;;;;20.00;3.80;;;11.30;89.10;;;;;;9158341;19;20022;-68
2023/01/05 09:04:44;;;;;;;25.20;4.18;;;11.30;89.20;;;;;;9161897;19;20059;-70
2023/01/05 09:07:45;;;;;;;34.47;3.65;;;11.30;89.20;;;;;;9162964;19;20458;-69
2023/01/05 09:10:47;;;;;;;33.92;5.07;;;11.20;89.20;;;;;;9165914;19;20337;-68
2023/01/05 09:13:57;;;;;;;27.30;4.65;;;11.30;89.10;;;;;;9164321;19;20018;-67
2023/01/05 09:16:58;;;;;;;31.70;5.05;;;11.30;89.50;;;;;;9166027;19;20505;-66
2023/01/05 09:20:09;;;;;;;39.95;5.50;;;11.30;89.10;;;;;;9163497;19;20622;-66
2023/01/05 09:23:10;;;;;;;21.45;4.00;;;11.30;89.20;;;;;;9162319;19;20014;-68
2023/01/05 09:26:14;;;;;;;29.45;4.15;;;11.30;89.20;;;;;;9160494;19;20499;-68
2023/01/05 09:29:16;;;;;;;;;;;11.30;89.10;;;;;;9162390;19;20700;-68
2023/01/05 09:32:17;;;;;;;30.38;4.15;;;11.30;90.10;;;;;;9162655;19;19931;-66
2023/01/05 09:35:19;;;;;;;25.42;4.38;;;11.40;89.10;;;;;;9162003;19;20026;-66
2023/01/05 09:38:21;;;;;;;26.73;4.28;;;11.40;89.10;;;;;;9167764;19;20949;-67
2023/01/05 09:41:40;;;;;;;27.13;4.40;;;12.10;90.30;;;;;;9171117;19;20019;-68
2023/01/05 09:44:49;;;;;;;28.77;3.88;;;11.40;90.20;;;;;;9175293;19;20387;-67
2023/01/05 09:48:00;;;;;;;26.48;3.97;;;11.40;89.20;;;;;;9172127;19;20039;-68
2023/01/05 09:51:01;;;;;;;24.98;5.13;;;11.40;89.20;;;;;;9173595;19;20038;-67
2023/01/05 09:54:03;;;;;;;33.58;6.57;;;11.40;89.20;;;;;;9181738;19;20547;-67
2023/01/05 09:57:13;;;;;;;30.73;3.95;;;11.50;89.30;;;;;;9174288;19;20030;-67
2023/01/05 10:00:16;;;;;;;26.77;3.95;;;11.40;89.30;;;;;;9177429;19;20389;-68
2023/01/05 10:03:20;;;;;;;37.10;5.93;;;11.40;89.10;;;;;;9180481;19;20022;-67
2023/01/05 10:06:44;;;;;;;27.15;4.25;;;11.40;89.20;;;;;;9172005;19;20026;-68
2023/01/05 10:09:47;;;;;;;17.70;3.60;;;11.50;89.20;;;;;;9172141;19;20025;-68
2023/01/05 10:13:05;;;;;;;30.08;4.03;;;11.50;89.20;;;;;;9176567;19;20030;-66
2023/01/05 10:16:14;;;;;;;37.20;4.85;;;11.50;89.20;;;;;;9179608;19;20050;-67
2023/01/05 10:19:19;;;;;;;25.45;3.50;;;11.50;89.10;;;;;;9176711;19;20499;-67
2023/01/05 10:22:41;;;;;;;;;;;11.60;89.20;;;;;;9183265;19;20400;-67
2023/01/05 10:25:52;;;;;;;20.75;3.42;;;11.60;89.10;;;;;;9180992;19;19958;-68
2023/01/05 10:29:10;;;;;;;18.15;3.03;;;11.60;89.10;;;;;;9182218;19;20034;-68
2023/01/05 10:32:28;;;;;;;24.90;4.20;;;11.60;89.10;;;;;;9179765;19;20149;-67
2023/01/05 10:35:44;;;;;;;31.85;5.35;;;11.50;89.10;;;;;;9172726;19;20085;-68
2023/01/05 10:39:24;;;;;;;24.67;3.13;;;11.60;89.10;;;;;;9175382;19;20025;-68
2023/01/05 10:42:57;;;;;;;27.60;4.00;;;11.60;89.10;;;;;;9181216;19;20019;-66
2023/01/05 10:45:59;;;;;;;27.17;4.18;;;11.60;89.10;;;;;;9179233;19;20018;-66
2023/01/05 10:49:30;;;;;;;28.60;4.28;;;11.60;89.40;;;;;;9169552;19;20014;-67
2023/01/05 10:52:32;;;;;;;25.60;3.83;;;11.60;89.30;;;;;;9172015;19;20025;-67
2023/01/05 10:55:55;;;;;;;19.17;3.67;;;11.60;89.40;;;;;;9175500;19;20019;-67
2023/01/05 10:59:10;;;;;;;20.92;3.55;;;11.60;89.40;;;;;;9171089;19;20022;-68
2023/01/05 11:02:12;;;;;;;19.73;3.53;;;11.70;89.90;;;;;;9176774;19;20015;-68
2023/01/05 11:05:23;;;;;;;24.33;3.53;;;11.70;91.20;;;;;;9179845;19;20702;-66
2023/01/05 11:08:29;;;;;;;31.80;4.38;;;11.70;89.20;;;;;;9174279;19;20467;-66
2023/01/05 11:11:31;;;;;;;26.35;3.00;;;11.70;88.90;;;;;;9170161;19;20022;-68
2023/01/05 11:14:42;;;;;;;30.05;4.03;;;11.60;88.80;;;;;;9180785;19;20015;-68
2023/01/05 11:17:44;;;;;;;21.40;3.38;;;11.70;88.90;;;;;;9180911;19;20014;-66
2023/01/05 11:21:09;;;;;;;23.02;4.38;;;11.70;88.80;;;;;;9178545;19;20014;-68
2023/01/05 11:24:22;;;;;;;26.05;4.53;;;11.70;88.80;;;;;;9176831;19;20026;-68
2023/01/05 11:27:24;;;;;;;22.77;4.07;;;11.70;88.70;;;;;;9174862;19;20792;-68
2023/01/05 11:30:25;;;;;;;16.88;3.55;;;11.70;88.70;;;;;;9180316;19;20026;-66
2023/01/05 11:33:29;;;;;;;27.02;3.58;;;11.80;88.80;;;;;;9179887;19;20751;-66
2023/01/05 11:36:30;;;;;;;31.20;3.60;;;11.70;88.70;;;;;;9180200;19;20049;-67
2023/01/05 11:39:46;;;;;;;28.33;4.93;;;11.80;89.20;;;;;;9169302;19;20022;-66
2023/01/05 11:42:48;;;;;;;33.33;4.40;;;11.80;88.70;;;;;;9173072;19;20075;-67
2023/01/05 11:45:53;;;;;;;28.67;5.32;;;11.80;88.60;;;;;;9171268;19;20030;-67
2023/01/05 11:48:56;;;;;;;29.42;4.10;;;11.80;88.60;;;;;;9172392;19;20481;-66
2023/01/05 11:51:57;;;;;;;25.08;3.50;;;11.80;88.70;;;;;;9169391;19;20018;-67
2023/01/05 11:54:58;;;;;;;24.83;3.75;;;11.90;88.70;;;;;;9173187;19;20740;-66
2023/01/05 11:58:19;;;;;;;24.05;4.20;;;11.90;88.60;;;;;;9169734;19;20011;-66
2023/01/05 12:01:51;;;;;;;27.23;6.75;;;11.90;88.60;;;;;;9169876;19;20010;-68
2023/01/05 12:04:58;;;;;;;15.68;3.38;;;11.90;88.60;;;;;;9167002;19;20015;-70
2023/01/05 12:08:29;;;;;;;28.30;3.25;;;11.90;88.60;;;;;;9171822;19;20110;-70
2023/01/05 12:11:43;;;;;;;33.25;4.82;;;11.90;88.70;;;;;;9165770;19;20066;-70
2023/01/05 12:15:06;;;;;;;15.85;4.05;;;11.40;90.30;;;;;;9167896;19;20025;-70
2023/01/05 12:18:37;;;;;;;35.80;5.05;;;11.90;88.50;;;;;;9177851;19;20026;-70
2023/01/05 12:21:45;;;;;;;28.02;4.80;;;12.00;91.10;;;;;;9168962;19;20340;-70
2023/01/05 12:25:15;;;;;;;35.00;4.70;;;12.10;90.80;;;;;;9167543;19;20022;-70
2023/01/05 12:28:43;;;;;;;24.20;4.68;;;12.00;88.50;;;;;;9172060;19;20502;-70
2023/01/05 12:32:06;;;;;;;27.55;5.00;;;12.00;88.50;;;;;;9175828;19;20026;-69
2023/01/05 12:35:57;;;;;;;22.95;4.25;;;12.00;88.40;;;;;;9176498;19;20051;-70
2023/01/05 12:39:17;;;;;;;34.20;5.03;;;12.00;88.40;;;;;;9175581;19;20022;-70
2023/01/05 12:42:43;;;;;;;23.27;3.63;;;12.00;88.40;;;;;;9175052;19;20014;-70
2023/01/05 12:46:02;;;;;;;26.85;3.95;;;12.10;88.30;;;;;;9174759;19;20022;-70
2023/01/05 12:49:12;;;;;;;18.33;5.40;;;12.10;88.30;;;;;;9172817;19;20022;-70
2023/01/05 12:52:34;;;;;;;19.00;4.05;;;12.10;88.30;;;;;;9170767;19;20015;-70
2023/01/05 12:55:57;;;;;;;36.53;5.63;;;12.10;88.20;;;;;;9175659;19;20033;-70
2023/01/05 12:59:09;;;;;;;27.42;4.38;;;12.10;88.20;;;;;;9177216;19;20714;-70
2023/01/05 13:02:25;;;;;;;21.52;4.05;;;12.10;88.30;;;;;;9174907;19;20475;-70
2023/01/05 13:05:45;;;;;;;29.27;4.35;;;12.10;88.20;;;;;;9174533;19;20074;-70
2023/01/05 13:08:53;;;;;;;23.63;3.42;;;12.10;91.80;;;;;;9156769;19;20130;-70
2023/01/05 13:12:14;;;;;;;33.80;4.60;;;12.30;90.50;;;;;;9161110;19;20052;-70
2023/01/05 13:15:22;;;;;;;22.70;4.93;;;12.10;90.20;;;;;;9161623;19;20026;-70
2023/01/05 13:18:25;;;;;;;24.50;4.03;;;12.30;92.30;;;;;;9163607;19;20486;-70
2023/01/05 13:21:27;;;;;;;20.58;3.92;;;12.30;90.70;;;;;;9169321;19;20022;-70
2023/01/05 13:24:51;;;;;;;30.92;5.13;;;12.10;91.30;;;;;;9166408;19;20130;-70
2023/01/05 13:27:55;;;;;;;32.47;4.30;;;12.10;88.10;;;;;;9158437;19;20020;-70
2023/01/05 13:31:15;;;;;;;21.60;4.05;;;12.10;88.20;;;;;;9160898;19;20025;-70
2023/01/05 13:34:44;;;;;;;27.83;4.60;;;12.80;88.50;;;;;;9162673;19;20419;-70
2023/01/05 13:38:07;;;;;;;19.40;4.30;;;12.10;88.10;;;;;;9160161;19;20019;-70
2023/01/05 13:41:35;;;;;;;20.20;4.45;;;12.10;88.00;;;;;;9161461;19;20018;-70
2023/01/05 13:45:14;;;;;;;31.20;4.50;;;11.70;87.90;;;;;;9167483;19;20026;-70
2023/01/05 13:48:32;;;;;;;25.65;4.38;;;12.30;91.70;;;;;;9171996;19;20026;-70
2023/01/05 13:52:09;;;;;;;30.48;5.05;;;12.30;91.30;;;;;;9169991;19;20089;-70
2023/01/05 13:55:13;;;;;;;32.65;4.65;;;12.30;91.80;;;;;;9173336;19;20022;-70
2023/01/05 13:58:48;;;;;;;26.88;4.15;;;12.10;87.90;;;;;;9175954;19;20022;-70
2023/01/05 14:01:50;;;;;;;31.65;5.22;;;12.10;87.90;;;;;;9173551;19;20538;-70
2023/01/05 14:04:52;;;;;;;26.85;4.88;;;12.10;88.10;;;;;;9174549;19;20015;-70
2023/01/05 14:07:54;;;;;;;25.27;5.03;;;12.10;87.90;;;;;;9175445;19;20018;-70
2023/01/05 14:11:10;;;;;;;29.70;4.20;;;12.10;87.90;;;;;;9169832;19;20078;-70
2023/01/05 14:14:56;;;;;;;26.83;4.45;;;12.10;87.90;;;;;;9174845;19;20007;-70
2023/01/05 14:18:09;;;;;;;21.30;3.63;;;12.10;87.80;;;;;;9173679;19;20018;-70
2023/01/05 14:21:10;;;;;;;25.23;4.72;;;12.10;87.90;;;;;;9172486;19;20034;-70
2023/01/05 14:24:37;;;;;;;27.17;4.55;;;12.10;87.80;;;;;;9173669;19;20645;-70
2023/01/05 14:28:32;;;;;;;30.77;5.05;;;12.10;87.90;;;;;;9178276;19;20024;-70
2023/01/05 14:31:37;;;;;;;27.38;4.38;;;12.10;87.80;;;;;;9177777;19;20014;-70
2023/01/05 14:35:10;;;;;;;38.85;5.80;;;12.10;87.80;;;;;;9182506;19;20014;-70
2023/01/05 14:38:22;;;;;;;33.75;4.80;;;12.10;87.70;;;;;;9180953;19;20376;-70
2023/01/05 14:41:27;;;;;;;28.05;4.85;;;12.10;87.80;;;;;;9180673;19;20033;-70
2023/01/05 14:44:50;;;;;;;32.75;5.88;;;12.10;87.70;;;;;;9179994;19;20467;-70
2023/01/05 14:48:02;;;;;;;41.13;6.30;;;12.10;87.70;;;;;;9182125;19;20042;-70
2023/01/05 14:51:25;;;;;;;31.90;7.07;;;12.10;87.60;;;;;;9174769;19;20014;-70
2023/01/05 14:54:55;;;;;;;34.30;5.55;;;12.10;87.60;;;;;;9180708;19;20018;-70
2023/01/05 14:58:34;;;;;;;29.83;4.32;;;12.10;87.60;;;;;;9181062;19;20018;-70
2023/01/05 15:01:45;;;;;;;26.40;4.53;;;12.10;87.70;;;;;;9182103;19;20030;-70
2023/01/05 15:04:49;;;;;;;24.17;5.47;;;12.10;87.60;;;;;;9179422;19;20030;-70
2023/01/05 15:08:03;;;;;;;24.17;4.68;;;12.10;87.60;;;;;;9181270;19;20736;-70
2023/01/05 15:11:12;;;;;;;22.90;4.40;;;12.10;87.50;;;;;;9177836;19;20018;-70
2023/01/05 15:14:33;;;;;;;27.52;4.78;;;12.00;87.50;;;;;;9181832;19;20033;-69
2023/01/05 15:18:12;;;;;;;24.25;4.53;;;12.00;87.50;;;;;;9180216;19;20364;-70
2023/01/05 15:21:26;;;;;;;32.70;5.65;;;12.00;87.40;;;;;;9181807;19;20011;-70
2023/01/05 15:24:54;;;;;;;25.70;5.03;;;12.00;87.50;;;;;;9180875;19;20014;-70
2023/01/05 15:28:24;;;;;;;36.08;5.65;;;12.00;87.60;;;;;;9181109;19;20035;-70
2023/01/05 15:32:01;;;;;;;32.47;6.07;;;11.90;87.40;;;;;;9179547;19;20019;-70
2023/01/05 15:35:18;;;;;;;29.60;4.93;;;11.90;87.40;;;;;;9172041;19;20018;-70
2023/01/05 15:38:25;;;;;;;30.02;5.53;;;11.90;87.50;;;;;;9178942;19;20018;-70
2023/01/05 15:41:27;;;;;;;24.67;5.40;;;11.80;87.30;;;;;;9176609;19;20083;-70
2023/01/05 15:44:39;;;;;;;20.63;4.22;;;11.80;87.40;;;;;;9178098;19;20018;-70
2023/01/05 15:47:40;;;;;;;15.90;4.57;;;11.80;87.40;;;;;;9177200;19;20014;-70
2023/01/05 15:50:51;;;;;;;17.58;4.13;;;11.70;87.40;;;;;;9176002;19;20011;-70
2023/01/05 15:53:56;;;;;;;30.80;5.20;;;11.70;87.40;;;;;;9179596;19;20417;-70
2023/01/05 15:57:01;;;;;;;24.27;4.75;;;11.70;87.40;;;;;;9174134;19;20018;-70
2023/01/05 16:00:25;;;;;;;26.63;4.82;;;11.70;87.40;;;;;;9173741;19;20030;-70
2023/01/05 16:03:30;;;;;;;28.00;4.77;;;11.70;87.40;;;;;;9176277;19;20019;-70
2023/01/05 16:06:32;;;;;;;25.48;4.50;;;11.70;87.40;;;;;;9164102;19;20662;-70
2023/01/05 16:09:36;;;;;;;21.40;4.65;;;11.70;87.40;;;;;;9157318;19;20022;-70
2023/01/05 16:12:38;;;;;;;27.58;4.95;;;11.60;87.40;;;;;;9160216;19;20023;-70
2023/01/05 16:15:41;;;;;;;27.13;5.25;;;11.60;87.40;;;;;;9158196;19;20011;-70
2023/01/05 16:18:48;;;;;;;29.90;5.32;;;11.60;87.40;;;;;;9157471;19;20103;-70
2023/01/05 16:22:04;;;;;;;31.02;7.35;;;11.50;87.40;;;;;;9159259;19;20019;-70
2023/01/05 16:25:15;;;;;;;31.33;8.48;;;11.50;87.40;;;;;;9163750;19;20023;-70
2023/01/05 16:28:18;;;;;;;28.73;8.52;;;11.50;87.40;;;;;;9158600;19;20023;-70
2023/01/05 16:31:39;;;;;;;27.17;6.65;;;11.40;87.40;;;;;;9160672;19;20022;-71
2023/01/05 16:34:40;;;;;;;24.38;5.03;;;11.40;87.40;;;;;;9164508;19;20499;-70
2023/01/05 16:37:41;;;;;;;30.85;5.60;;;11.40;87.40;;;;;;9167852;19;20019;-69
2023/01/05 16:40:46;;;;;;;22.15;5.75;;;11.40;87.50;;;;;;9170829;19;20487;-68